Time;durP1;ratioP1;P1;durP2;ratioP2;P2;SDS_P1;SDS_P2;PMS_P1;PMS_P2;Temp;Humidity;BMP_temperature;BMP_pressure;BME280_temperature;BME280_humidity;BME280_pressure;Samples;Min_cycle;Max_cycle;Signal;HPM_P1;HPM_P2
2021/05/27 00:01:10;;;;;;;8.20;7.30;;;12.30;81.20;;;;;;5012621;28;20061;-79
2021/05/27 00:03:36;;;;;;;10.93;7.47;;;12.30;81.30;;;;;;5013641;28;20129;-80
2021/05/27 00:06:02;;;;;;;10.30;6.83;;;12.30;81.30;;;;;;5012724;28;20041;-80
2021/05/27 00:08:27;;;;;;;7.27;6.47;;;12.30;81.20;;;;;;4996887;28;20026;-79
2021/05/27 00:10:53;;;;;;;7.87;6.60;;;12.30;81.10;;;;;;4974610;28;20483;-79
2021/05/27 00:13:18;;;;;;;9.30;6.60;;;12.20;81.10;;;;;;5002605;28;20063;-79
2021/05/27 00:15:44;;;;;;;8.03;6.30;;;12.20;81.20;;;;;;4978848;28;20034;-78
2021/05/27 00:18:10;;;;;;;9.90;6.47;;;12.20;81.30;;;;;;4996641;28;20034;-78
2021/05/27 00:20:36;;;;;;;8.53;6.47;;;12.10;81.80;;;;;;4992393;28;20027;-79
2021/05/27 00:23:02;;;;;;;9.53;6.50;;;12.10;81.50;;;;;;4999005;28;20046;-79
2021/05/27 00:25:27;;;;;;;8.10;7.20;;;12.00;81.60;;;;;;5014205;28;20030;-78
2021/05/27 00:27:53;;;;;;;9.93;7.63;;;12.00;81.70;;;;;;5014108;28;20125;-78
2021/05/27 00:30:19;;;;;;;10.00;6.33;;;12.00;81.70;;;;;;5012056;28;20125;-79
2021/05/27 00:32:46;;;;;;;13.47;8.60;;;12.00;81.70;;;;;;5012341;28;20030;-80
2021/05/27 00:35:12;;;;;;;9.33;7.50;;;12.00;81.90;;;;;;5011766;28;20474;-79
2021/05/27 00:37:38;;;;;;;9.80;7.13;;;12.00;81.90;;;;;;5013658;28;20026;-78
2021/05/27 00:40:06;;;;;;;9.17;7.20;;;12.00;81.90;;;;;;5011249;28;20479;-79
2021/05/27 00:42:32;;;;;;;11.23;8.23;;;12.00;82.00;;;;;;5012118;28;20022;-79
2021/05/27 00:45:05;;;;;;;12.07;7.90;;;12.00;82.10;;;;;;4995573;28;20398;-81
2021/05/27 00:47:31;;;;;;;;;;;12.00;82.20;;;;;;5012308;28;20038;-78
2021/05/27 00:49:56;;;;;;;9.43;7.70;;;12.00;82.20;;;;;;4995343;28;19920;-79
2021/05/27 00:52:22;;;;;;;11.17;7.97;;;12.00;82.00;;;;;;5012569;28;20023;-79
2021/05/27 00:54:49;;;;;;;11.07;7.97;;;12.00;82.20;;;;;;5011868;28;20037;-79
2021/05/27 00:57:29;;;;;;;12.10;8.70;;;12.00;82.30;;;;;;4994382;28;20030;-79
2021/05/27 00:59:55;;;;;;;11.30;8.77;;;12.00;82.30;;;;;;5010531;28;20026;-78
2021/05/27 01:02:21;;;;;;;10.63;7.83;;;12.00;82.30;;;;;;5010238;28;20026;-77
2021/05/27 01:04:46;;;;;;;12.53;8.63;;;12.00;82.30;;;;;;4991760;28;20042;-78
2021/05/27 01:07:13;;;;;;;10.97;8.17;;;12.10;82.30;;;;;;4990609;28;20117;-79
2021/05/27 01:09:41;;;;;;;10.70;8.20;;;12.10;82.20;;;;;;4978221;28;20034;-78
2021/05/27 01:12:08;;;;;;;13.40;8.27;;;12.10;82.10;;;;;;5010532;28;20462;-80
2021/05/27 01:17:19;;;;;;;11.27;8.13;;;12.10;82.00;;;;;;4997237;28;20060;-78
2021/05/27 01:19:44;;;;;;;10.87;8.27;;;12.10;82.00;;;;;;5012299;28;20037;-78
2021/05/27 01:22:10;;;;;;;10.93;8.10;;;12.10;82.10;;;;;;5009921;28;20494;-79
2021/05/27 01:24:36;;;;;;;11.53;8.33;;;12.10;82.00;;;;;;4994972;28;20414;-79
2021/05/27 01:27:01;;;;;;;11.17;7.40;;;12.10;81.90;;;;;;4978712;28;20394;-77
2021/05/27 01:29:27;;;;;;;11.27;8.07;;;12.20;81.90;;;;;;5009720;28;20033;-79
2021/05/27 01:31:53;;;;;;;12.67;7.77;;;12.20;81.80;;;;;;4990757;28;20038;-82
2021/05/27 01:34:19;;;;;;;8.53;7.47;;;12.10;81.90;;;;;;4990083;28;20049;-78
2021/05/27 01:36:45;;;;;;;9.90;7.60;;;12.10;82.10;;;;;;4991027;28;20475;-79
2021/05/27 01:39:11;;;;;;;12.43;7.90;;;12.10;82.20;;;;;;5006641;28;20031;-80
2021/05/27 01:41:37;;;;;;;9.87;7.43;;;12.10;82.20;;;;;;4994451;28;20038;-81
2021/05/27 01:44:03;;;;;;;10.97;7.50;;;12.20;82.20;;;;;;5010120;28;20532;-78
2021/05/27 01:46:29;;;;;;;12.90;7.60;;;12.20;82.00;;;;;;4993470;28;20297;-78
2021/05/27 01:48:55;;;;;;;13.90;7.50;;;12.20;82.00;;;;;;5010523;28;20038;-78
2021/05/27 01:51:20;;;;;;;11.37;7.33;;;12.30;81.80;;;;;;5009045;28;20049;-78
2021/05/27 01:53:46;;;;;;;13.63;7.37;;;12.30;81.70;;;;;;5010540;28;20125;-77
2021/05/27 01:56:12;;;;;;;10.87;6.57;;;12.30;81.60;;;;;;5010120;28;20034;-81
2021/05/27 01:58:38;;;;;;;14.80;7.10;;;12.30;81.60;;;;;;5011864;28;20087;-78
2021/05/27 02:01:05;;;;;;;12.33;7.13;;;12.20;81.40;;;;;;5010232;28;20033;-78
2021/05/27 02:03:31;;;;;;;16.80;7.70;;;12.20;81.40;;;;;;5010275;28;20045;-78
2021/05/27 02:05:56;;;;;;;14.47;7.40;;;12.20;81.40;;;;;;4993864;28;20112;-78
2021/05/27 02:08:22;;;;;;;17.43;7.73;;;12.20;81.50;;;;;;4993216;28;20088;-78
2021/05/27 02:10:48;;;;;;;12.57;7.70;;;12.20;81.60;;;;;;4990338;28;20080;-77
2021/05/27 02:13:13;;;;;;;10.80;7.30;;;12.20;81.60;;;;;;5009441;28;20692;-83
2021/05/27 02:15:39;;;;;;;12.57;7.17;;;12.20;81.60;;;;;;4979063;28;20046;-79
2021/05/27 02:18:05;;;;;;;12.57;7.27;;;12.20;81.40;;;;;;4990696;28;20069;-79
2021/05/27 02:20:31;;;;;;;17.60;7.50;;;12.30;81.50;;;;;;4999681;28;20046;-79
2021/05/27 02:22:57;;;;;;;11.03;7.40;;;12.20;81.40;;;;;;5010042;28;20046;-79
2021/05/27 02:25:23;;;;;;;12.43;6.67;;;12.20;81.30;;;;;;4993075;28;20049;-78
2021/05/27 02:27:49;;;;;;;11.67;7.20;;;12.20;81.20;;;;;;4993780;28;20030;-78
2021/05/27 02:30:15;;;;;;;12.37;7.50;;;12.20;81.10;;;;;;4986755;28;20026;-79
2021/05/27 02:32:41;;;;;;;11.90;6.80;;;12.20;80.90;;;;;;5009402;28;20176;-80
2021/05/27 02:35:07;;;;;;;11.30;6.73;;;12.20;80.90;;;;;;4993466;28;20120;-80
2021/05/27 02:37:33;;;;;;;15.67;7.17;;;12.20;80.60;;;;;;5009288;28;20381;-78
2021/05/27 02:39:59;;;;;;;13.77;7.23;;;12.20;80.50;;;;;;5011326;28;20161;-80
2021/05/27 02:42:24;;;;;;;11.20;6.83;;;12.20;80.60;;;;;;4989449;28;20383;-77
2021/05/27 02:44:50;;;;;;;13.00;6.90;;;12.30;80.60;;;;;;4991100;28;20387;-79
2021/05/27 02:47:15;;;;;;;13.20;6.83;;;12.20;80.30;;;;;;4990233;28;20049;-78
2021/05/27 02:49:41;;;;;;;15.30;7.40;;;12.20;80.30;;;;;;5007626;28;20026;-77
2021/05/27 02:52:07;;;;;;;15.87;6.97;;;12.30;80.20;;;;;;5009957;28;20038;-78
2021/05/27 02:54:33;;;;;;;14.80;7.03;;;12.20;80.10;;;;;;5009120;28;20038;-77
2021/05/27 02:56:59;;;;;;;12.80;6.83;;;12.30;80.20;;;;;;4977422;28;20096;-77
2021/05/27 02:59:26;;;;;;;11.17;6.90;;;12.30;80.10;;;;;;5008821;28;20121;-80
2021/05/27 03:01:53;;;;;;;12.93;7.00;;;12.30;80.10;;;;;;5010838;28;20029;-80
2021/05/27 03:04:19;;;;;;;13.77;7.00;;;12.20;80.00;;;;;;4993676;28;20034;-78
2021/05/27 03:06:45;;;;;;;13.60;7.47;;;12.20;80.10;;;;;;5010207;28;20635;-79
2021/05/27 03:09:11;;;;;;;15.07;7.73;;;12.20;79.90;;;;;;4993275;28;21636;-80
2021/05/27 03:11:37;;;;;;;12.50;7.30;;;12.20;79.60;;;;;;5010185;28;20037;-77
2021/05/27 03:14:03;;;;;;;12.27;7.23;;;12.20;79.50;;;;;;4994185;28;20025;-78
2021/05/27 03:16:29;;;;;;;11.87;7.27;;;12.20;79.50;;;;;;5010044;28;20038;-77
2021/05/27 03:18:54;;;;;;;12.50;7.13;;;12.20;79.40;;;;;;4993378;28;20068;-78
2021/05/27 03:21:20;;;;;;;12.53;7.40;;;12.20;79.30;;;;;;4989934;28;20062;-78
2021/05/27 03:23:46;;;;;;;12.77;7.83;;;12.20;79.30;;;;;;4973415;28;20093;-78
2021/05/27 03:26:12;;;;;;;17.57;7.83;;;12.20;79.30;;;;;;4990239;28;20022;-78
2021/05/27 03:28:38;;;;;;;14.80;7.30;;;12.20;79.20;;;;;;4989443;28;20041;-78
2021/05/27 03:31:03;;;;;;;18.37;8.97;;;12.20;79.30;;;;;;5008203;28;20038;-79
2021/05/27 03:33:29;;;;;;;16.27;7.53;;;12.20;79.20;;;;;;4989450;28;20453;-81
2021/05/27 03:35:55;;;;;;;12.73;7.97;;;12.20;79.20;;;;;;4989682;28;20030;-78
2021/05/27 03:38:20;;;;;;;12.67;7.07;;;12.20;79.30;;;;;;4990310;28;20399;-79
2021/05/27 03:40:46;;;;;;;11.10;7.17;;;12.20;79.50;;;;;;5004092;28;20026;-79
2021/05/27 03:43:12;;;;;;;16.67;7.47;;;12.20;79.50;;;;;;4977490;28;20459;-79
2021/05/27 03:45:38;;;;;;;15.27;8.07;;;12.20;79.60;;;;;;5008968;28;20508;-79
2021/05/27 03:48:05;;;;;;;14.83;7.40;;;12.20;79.70;;;;;;5009461;28;20165;-79
2021/05/27 03:50:31;;;;;;;15.40;7.83;;;12.20;79.70;;;;;;5008947;28;20064;-79
2021/05/27 03:52:59;;;;;;;13.93;7.67;;;12.20;79.80;;;;;;5008906;28;20117;-79
2021/05/27 03:55:25;;;;;;;15.20;7.20;;;12.20;79.70;;;;;;4978022;28;20489;-80
2021/05/27 03:57:53;;;;;;;13.27;7.53;;;12.30;79.80;;;;;;5014025;28;20030;-80
2021/05/27 04:00:44;;;;;;;14.93;8.63;;;12.30;79.80;;;;;;4994343;28;20027;-79
2021/05/27 04:03:10;;;;;;;16.33;7.87;;;12.30;79.60;;;;;;5013576;28;20029;-80
2021/05/27 04:08:21;;;;;;;14.07;9.40;;;12.20;79.40;;;;;;5016769;28;20401;-80
2021/05/27 04:10:47;;;;;;;18.90;9.33;;;12.20;79.20;;;;;;4999325;28;20026;-80
2021/05/27 04:13:13;;;;;;;16.00;8.60;;;12.20;79.20;;;;;;5018743;28;20033;-79
2021/05/27 04:15:40;;;;;;;15.57;8.07;;;12.20;79.00;;;;;;5017091;28;20045;-79
2021/05/27 04:18:25;;;;;;;16.20;8.90;;;12.20;78.90;;;;;;5018105;28;20041;-78
2021/05/27 04:20:54;;;;;;;14.50;7.77;;;12.20;78.70;;;;;;5017188;28;20018;-80
2021/05/27 04:23:36;;;;;;;20.33;8.60;;;12.10;78.70;;;;;;5019641;28;20081;-80
2021/05/27 04:26:04;;;;;;;14.80;7.75;;;12.10;78.60;;;;;;5019964;28;20040;-79
2021/05/27 04:28:31;;;;;;;17.63;8.40;;;12.10;78.50;;;;;;5018950;28;20040;-79
2021/05/27 04:31:10;;;;;;;16.70;7.93;;;12.10;78.40;;;;;;5017939;28;20038;-81
2021/05/27 04:33:43;;;;;;;15.70;7.80;;;12.10;78.30;;;;;;5022406;28;20026;-80
2021/05/27 04:36:13;;;;;;;16.20;7.93;;;12.10;78.20;;;;;;5019145;28;20092;-80
2021/05/27 04:38:39;;;;;;;14.43;7.33;;;12.10;78.10;;;;;;5003663;28;20101;-79
2021/05/27 04:41:06;;;;;;;14.40;7.10;;;12.00;78.00;;;;;;5006653;28;20037;-79
2021/05/27 04:43:32;;;;;;;16.43;7.47;;;12.00;78.10;;;;;;5012397;28;20014;-81
2021/05/27 04:45:58;;;;;;;17.67;8.33;;;12.00;77.90;;;;;;5031584;28;20061;-81
2021/05/27 04:48:23;;;;;;;16.43;8.23;;;12.00;77.90;;;;;;5032120;28;20034;-81
2021/05/27 04:50:50;;;;;;;14.43;6.67;;;11.90;78.00;;;;;;5014343;28;20045;-79
2021/05/27 04:53:21;;;;;;;19.67;7.93;;;11.90;78.80;;;;;;5011876;28;20065;-79
2021/05/27 04:55:47;;;;;;;18.47;8.00;;;12.00;78.30;;;;;;5009830;28;20040;-81
2021/05/27 04:58:13;;;;;;;17.57;7.97;;;11.90;78.30;;;;;;5007584;28;20026;-79
2021/05/27 05:00:39;;;;;;;15.43;8.33;;;11.90;78.60;;;;;;5026597;28;20053;-79
2021/05/27 05:03:05;;;;;;;18.57;8.50;;;12.00;78.80;;;;;;5012222;28;20030;-79
2021/05/27 05:05:33;;;;;;;15.70;7.80;;;12.00;79.00;;;;;;5028457;28;20041;-79
2021/05/27 05:07:59;;;;;;;14.27;8.03;;;12.00;79.20;;;;;;5004037;28;20042;-79
2021/05/27 05:10:26;;;;;;;14.57;7.60;;;12.00;79.30;;;;;;5016345;28;20113;-80
2021/05/27 05:12:52;;;;;;;19.00;8.50;;;12.10;79.60;;;;;;4996211;28;20034;-79
2021/05/27 05:15:26;;;;;;;14.00;7.17;;;12.10;79.40;;;;;;4996275;28;20060;-80
2021/05/27 05:18:13;;;;;;;15.93;8.50;;;12.10;79.60;;;;;;5013259;28;20049;-82
2021/05/27 05:20:44;;;;;;;17.57;9.10;;;12.10;79.80;;;;;;4993144;28;20034;-81
2021/05/27 05:23:10;;;;;;;15.33;7.73;;;12.10;79.80;;;;;;4994030;28;20108;-80
2021/05/27 05:25:37;;;;;;;19.57;8.00;;;12.10;79.80;;;;;;4977742;28;20127;-80
2021/05/27 05:28:03;;;;;;;17.37;7.97;;;12.10;79.90;;;;;;4994653;28;20041;-79
2021/05/27 05:30:31;;;;;;;15.60;7.60;;;12.10;80.00;;;;;;5013866;28;20030;-78
2021/05/27 05:32:57;;;;;;;13.00;7.00;;;12.10;80.20;;;;;;4980731;28;20030;-79
2021/05/27 05:35:23;;;;;;;13.43;7.10;;;12.10;80.30;;;;;;5012676;28;20034;-79
2021/05/27 05:37:49;;;;;;;15.13;7.73;;;12.10;80.20;;;;;;5016375;28;20033;-78
2021/05/27 05:40:17;;;;;;;12.20;6.73;;;12.10;80.40;;;;;;5014797;28;20034;-76
2021/05/27 05:42:45;;;;;;;13.00;7.23;;;12.20;80.50;;;;;;5014065;28;20034;-77
2021/05/27 05:45:14;;;;;;;15.47;7.97;;;12.20;80.40;;;;;;5013397;28;20528;-77
2021/05/27 05:47:40;;;;;;;13.77;8.03;;;12.20;80.70;;;;;;5015886;28;20034;-76
2021/05/27 05:50:08;;;;;;;13.63;6.90;;;12.20;80.50;;;;;;5014476;28;20046;-78
2021/05/27 05:52:34;;;;;;;14.63;7.60;;;12.20;80.50;;;;;;5014009;28;20117;-79
2021/05/27 05:55:00;;;;;;;18.80;8.27;;;12.20;80.60;;;;;;5011621;28;20117;-78
2021/05/27 05:57:25;;;;;;;13.47;6.90;;;12.20;80.60;;;;;;5011026;28;20405;-78
2021/05/27 05:59:52;;;;;;;12.13;6.13;;;12.10;80.30;;;;;;4978875;28;20084;-79
2021/05/27 06:02:18;;;;;;;15.17;6.60;;;12.20;80.40;;;;;;4994207;28;20030;-81
2021/05/27 06:04:44;;;;;;;16.40;6.43;;;12.20;80.30;;;;;;5010915;28;20041;-80
2021/05/27 06:07:09;;;;;;;13.47;5.63;;;12.20;80.00;;;;;;5009638;28;20405;-84
2021/05/27 06:09:35;;;;;;;14.80;5.90;;;12.20;80.10;;;;;;5011109;28;20474;-81
2021/05/27 06:12:00;;;;;;;14.60;6.20;;;12.20;80.10;;;;;;5009245;28;20524;-81
2021/05/27 06:14:27;;;;;;;16.93;6.27;;;12.20;80.30;;;;;;5009969;28;20460;-80
2021/05/27 06:16:53;;;;;;;12.63;6.23;;;12.30;80.40;;;;;;5004221;28;20481;-79
2021/05/27 06:19:19;;;;;;;11.87;5.90;;;12.40;80.50;;;;;;4992447;28;20100;-79
2021/05/27 06:21:44;;;;;;;12.33;5.80;;;12.50;80.40;;;;;;5005754;28;20050;-80
2021/05/27 06:24:10;;;;;;;10.93;5.77;;;12.50;80.10;;;;;;5009500;28;20434;-79
2021/05/27 06:26:36;;;;;;;11.53;5.50;;;12.40;80.00;;;;;;5010257;28;20545;-79
2021/05/27 06:29:03;;;;;;;18.73;6.13;;;12.40;80.10;;;;;;4986382;28;20478;-87
2021/05/27 06:31:29;;;;;;;16.57;6.63;;;12.40;80.20;;;;;;5006094;28;20046;-80
2021/05/27 06:33:55;;;;;;;15.93;6.23;;;12.40;80.30;;;;;;5007028;28;20058;-80
2021/05/27 06:36:21;;;;;;;16.40;6.07;;;12.40;80.30;;;;;;5003262;28;20118;-79
2021/05/27 06:38:47;;;;;;;15.30;6.23;;;12.40;80.40;;;;;;4990014;28;20034;-80
2021/05/27 06:41:15;;;;;;;14.10;5.77;;;12.40;80.30;;;;;;5008845;28;20045;-79
2021/05/27 06:43:40;;;;;;;16.63;6.53;;;12.40;80.30;;;;;;4962148;28;20062;-79
2021/05/27 06:46:06;;;;;;;15.80;6.13;;;12.40;80.30;;;;;;4998708;28;20089;-82
2021/05/27 06:48:32;;;;;;;15.07;6.00;;;12.50;80.30;;;;;;4979452;28;20031;-78
2021/05/27 06:50:57;;;;;;;13.93;6.23;;;12.50;80.30;;;;;;5003763;28;20378;-78
2021/05/27 06:53:23;;;;;;;14.00;7.10;;;12.50;80.30;;;;;;4994843;28;20395;-79
2021/05/27 06:55:49;;;;;;;13.57;7.13;;;12.50;80.30;;;;;;4993089;28;20508;-78
2021/05/27 06:58:16;;;;;;;15.17;7.90;;;12.50;80.30;;;;;;4986472;28;20031;-83
2021/05/27 07:00:41;;;;;;;15.80;7.50;;;12.50;80.30;;;;;;4985203;28;20034;-78
2021/05/27 07:03:08;;;;;;;18.13;8.70;;;12.50;80.30;;;;;;4992713;28;20505;-77
2021/05/27 07:05:35;;;;;;;14.07;7.53;;;12.50;80.40;;;;;;5008945;28;20486;-78
2021/05/27 07:08:02;;;;;;;16.43;7.63;;;12.60;80.50;;;;;;5010542;28;20038;-79
2021/05/27 07:10:30;;;;;;;16.90;7.73;;;12.60;80.50;;;;;;4983446;28;20058;-78
2021/05/27 07:12:59;;;;;;;15.70;7.63;;;12.60;80.40;;;;;;4990645;28;20023;-78
2021/05/27 07:15:26;;;;;;;17.40;7.87;;;12.60;80.50;;;;;;5006784;28;20030;-79
2021/05/27 07:17:53;;;;;;;14.87;8.23;;;12.70;80.40;;;;;;5009746;28;20184;-78
2021/05/27 07:20:20;;;;;;;18.07;8.20;;;12.70;80.40;;;;;;5008743;28;20095;-79
2021/05/27 07:22:47;;;;;;;15.40;8.70;;;12.70;80.30;;;;;;5010235;28;20128;-81
2021/05/27 07:25:14;;;;;;;19.40;9.27;;;12.70;80.60;;;;;;5009356;28;20038;-82
2021/05/27 07:27:41;;;;;;;19.37;9.47;;;12.80;80.60;;;;;;5009673;28;20026;-80
2021/05/27 07:30:07;;;;;;;18.47;9.27;;;12.80;80.50;;;;;;4992076;28;20088;-79
2021/05/27 07:32:34;;;;;;;21.13;10.17;;;12.80;80.40;;;;;;5009659;28;20042;-80
2021/05/27 07:34:59;;;;;;;20.40;9.90;;;12.70;80.60;;;;;;5009603;28;20148;-83
2021/05/27 07:37:25;;;;;;;21.03;10.30;;;12.80;80.60;;;;;;5012335;28;20124;-81
2021/05/27 07:39:51;;;;;;;18.50;9.57;;;12.80;80.60;;;;;;5013537;28;20489;-79
2021/05/27 07:42:17;;;;;;;20.70;11.23;;;12.80;80.70;;;;;;5013337;28;20030;-85
2021/05/27 07:44:43;;;;;;;21.03;10.70;;;12.80;80.70;;;;;;5013158;28;20042;-81
2021/05/27 07:47:09;;;;;;;24.03;13.20;;;12.80;80.70;;;;;;4993107;28;20042;-80
2021/05/27 07:49:34;;;;;;;20.40;11.47;;;12.80;80.60;;;;;;5004483;28;20102;-81
2021/05/27 07:52:00;;;;;;;24.37;12.67;;;13.00;80.60;;;;;;4992180;28;20088;-81
2021/05/27 07:54:27;;;;;;;32.00;13.70;;;13.00;80.30;;;;;;5010297;28;20183;-81
2021/05/27 07:56:53;;;;;;;35.43;13.33;;;13.00;80.30;;;;;;5013815;28;20044;-79
2021/05/27 07:59:18;;;;;;;38.30;15.10;;;13.00;80.50;;;;;;5002831;28;20030;-82
2021/05/27 08:01:44;;;;;;;28.20;13.30;;;13.10;81.10;;;;;;4994586;28;20034;-80
2021/05/27 08:04:10;;;;;;;26.27;14.23;;;13.20;80.50;;;;;;4995966;28;20386;-77
2021/05/27 08:06:36;;;;;;;26.93;16.17;;;13.20;80.20;;;;;;5011850;28;20026;-77
2021/05/27 08:09:06;;;;;;;23.73;14.57;;;13.20;80.20;;;;;;5012027;28;20034;-78
2021/05/27 08:11:31;;;;;;;31.20;18.67;;;13.20;80.10;;;;;;5008448;28;20026;-76
2021/05/27 08:13:57;;;;;;;27.87;17.13;;;13.20;80.30;;;;;;5013753;28;20512;-76
2021/05/27 08:16:22;;;;;;;26.53;14.87;;;13.20;80.10;;;;;;4978544;28;20045;-78
2021/05/27 08:18:48;;;;;;;25.33;15.00;;;13.20;80.20;;;;;;4976887;28;20124;-78
2021/05/27 08:21:14;;;;;;;26.07;13.63;;;13.20;80.30;;;;;;5006720;28;20037;-79
2021/05/27 08:23:40;;;;;;;28.97;17.23;;;13.20;80.20;;;;;;5012408;28;20054;-81
2021/05/27 08:26:06;;;;;;;25.37;15.83;;;13.30;80.30;;;;;;4997729;28;20084;-86
2021/05/27 08:28:31;;;;;;;29.20;16.30;;;13.40;80.10;;;;;;5014667;28;20450;-77
2021/05/27 08:30:57;;;;;;;25.53;12.20;;;13.40;79.90;;;;;;5013734;28;20474;-79
2021/05/27 08:33:23;;;;;;;27.13;15.93;;;13.60;79.70;;;;;;5015768;28;20053;-79
2021/05/27 08:35:49;;;;;;;25.75;14.32;;;13.60;79.70;;;;;;5013458;28;20501;-77
2021/05/27 08:38:14;;;;;;;16.98;10.15;;;13.70;79.40;;;;;;5013236;28;20426;-79
2021/05/27 08:40:43;;;;;;;23.65;12.40;;;13.80;79.10;;;;;;4996545;28;20394;-79
2021/05/27 08:43:10;;;;;;;19.38;10.80;;;13.90;78.90;;;;;;4996699;28;20060;-78
2021/05/27 08:45:40;;;;;;;26.17;13.18;;;13.90;78.50;;;;;;4998741;28;20054;-78
2021/05/27 08:48:06;;;;;;;27.05;14.27;;;13.90;78.50;;;;;;5015384;28;20026;-83
2021/05/27 08:50:40;;;;;;;22.70;13.68;;;14.00;78.30;;;;;;4980852;28;20124;-78
2021/05/27 08:53:06;;;;;;;22.92;12.43;;;14.10;78.00;;;;;;5012900;28;20034;-83
2021/05/27 08:55:32;;;;;;;19.67;11.23;;;14.20;77.80;;;;;;4979797;28;20168;-78
2021/05/27 08:57:58;;;;;;;23.77;12.52;;;14.10;77.40;;;;;;4997166;28;20034;-77
2021/05/27 09:00:25;;;;;;;18.58;9.27;;;14.20;77.70;;;;;;5013541;28;20057;-77
2021/05/27 09:02:55;;;;;;;20.05;9.10;;;14.20;77.40;;;;;;5012622;28;20324;-81
2021/05/27 09:05:23;;;;;;;18.67;10.07;;;14.20;77.40;;;;;;5013088;28;20069;-79
2021/05/27 09:07:48;;;;;;;17.95;8.63;;;14.20;77.40;;;;;;5013064;28;20068;-79
2021/05/27 09:10:14;;;;;;;20.85;9.50;;;14.20;77.30;;;;;;5012026;28;20030;-76
2021/05/27 09:12:40;;;;;;;19.42;9.82;;;14.20;77.50;;;;;;5011411;28;20062;-78
2021/05/27 09:15:22;;;;;;;17.40;9.30;;;14.10;77.60;;;;;;4995856;28;20046;-78
2021/05/27 09:17:50;;;;;;;19.02;9.20;;;14.10;77.70;;;;;;5011723;28;20044;-78
2021/05/27 09:20:24;;;;;;;17.77;10.05;;;14.00;77.70;;;;;;5013428;28;20079;-78
2021/05/27 09:23:17;;;;;;;20.38;9.48;;;14.00;77.90;;;;;;5010755;28;20073;-78
2021/05/27 09:25:45;;;;;;;;;;;13.90;77.90;;;;;;5011789;28;20026;-77
2021/05/27 09:28:17;;;;;;;17.90;8.77;;;13.90;77.70;;;;;;5012953;28;19941;-81
2021/05/27 09:30:46;;;;;;;14.57;7.60;;;13.90;78.00;;;;;;4996175;28;20049;-79
2021/05/27 09:33:12;;;;;;;14.93;8.00;;;13.90;78.30;;;;;;5012974;28;20026;-82
2021/05/27 09:35:38;;;;;;;18.98;8.77;;;14.00;78.00;;;;;;5011216;28;20041;-78
2021/05/27 09:38:05;;;;;;;21.60;9.82;;;14.00;77.60;;;;;;5013348;28;20089;-78
2021/05/27 09:40:46;;;;;;;16.15;9.40;;;14.00;78.10;;;;;;5011641;28;20026;-80
2021/05/27 09:43:20;;;;;;;17.48;11.07;;;13.90;77.70;;;;;;4995577;28;20038;-78
2021/05/27 09:46:00;;;;;;;17.60;9.13;;;13.70;78.00;;;;;;5011100;28;20025;-78
2021/05/27 09:48:25;;;;;;;14.80;8.90;;;13.70;78.10;;;;;;4995543;28;20373;-78
2021/05/27 09:50:55;;;;;;;16.90;7.60;;;13.70;78.10;;;;;;5010924;28;20056;-79
2021/05/27 09:53:25;;;;;;;12.90;7.65;;;13.60;78.40;;;;;;5011498;28;20068;-77
2021/05/27 09:55:51;;;;;;;19.27;8.95;;;13.60;78.60;;;;;;5010990;28;20041;-78
2021/05/27 09:58:17;;;;;;;15.18;8.07;;;13.60;78.80;;;;;;5012768;28;20026;-79
2021/05/27 10:00:44;;;;;;;16.33;9.50;;;13.70;78.90;;;;;;4994218;28;20030;-79
2021/05/27 10:03:31;;;;;;;19.10;8.70;;;13.90;78.60;;;;;;5011035;28;20030;-78
2021/05/27 10:05:59;;;;;;;18.77;8.98;;;14.30;78.00;;;;;;5010244;28;20492;-77
2021/05/27 10:08:25;;;;;;;12.93;7.47;;;14.60;77.20;;;;;;5010881;28;20030;-81
2021/05/27 10:10:51;;;;;;;14.90;8.43;;;14.90;76.50;;;;;;4994404;28;20033;-81
2021/05/27 10:13:21;;;;;;;15.60;7.45;;;15.00;75.70;;;;;;5009868;28;20030;-79
2021/05/27 10:15:46;;;;;;;16.83;8.35;;;15.10;75.40;;;;;;5010494;28;20419;-84
2021/05/27 10:18:19;;;;;;;14.38;8.77;;;15.20;75.40;;;;;;4982272;28;20041;-78
2021/05/27 10:20:46;;;;;;;15.73;9.98;;;15.40;75.10;;;;;;5003053;28;20167;-81
2021/05/27 10:23:13;;;;;;;16.15;10.25;;;15.70;74.40;;;;;;5009293;28;20046;-79
2021/05/27 10:25:39;;;;;;;16.38;10.35;;;16.00;73.50;;;;;;5009630;28;20029;-78
2021/05/27 10:28:16;;;;;;;16.63;11.40;;;16.30;72.40;;;;;;4991607;28;20482;-80
2021/05/27 10:30:45;;;;;;;17.75;10.27;;;16.40;72.50;;;;;;5009855;28;20029;-79
2021/05/27 10:33:19;;;;;;;15.40;9.20;;;16.30;71.80;;;;;;5008643;28;20172;-81
2021/05/27 10:35:55;;;;;;;17.17;9.95;;;16.10;71.70;;;;;;5007918;28;20033;-80
2021/05/27 10:38:40;;;;;;;14.57;8.07;;;16.00;72.30;;;;;;5009382;28;20030;-78
2021/05/27 10:41:13;;;;;;;16.27;7.95;;;15.80;72.20;;;;;;5007096;28;20088;-77
2021/05/27 10:44:08;;;;;;;15.70;7.57;;;16.00;72.70;;;;;;5008305;28;20371;-79
2021/05/27 10:46:54;;;;;;;12.65;6.22;;;16.00;72.30;;;;;;5011253;28;20459;-80
2021/05/27 10:49:39;;;;;;;11.63;6.63;;;16.00;72.00;;;;;;5008326;28;20042;-78
2021/05/27 10:52:38;;;;;;;8.55;4.78;;;16.00;71.80;;;;;;5005964;28;20026;-76
2021/05/27 10:55:06;;;;;;;11.50;4.90;;;16.30;71.50;;;;;;4977856;28;20054;-78
2021/05/27 10:57:42;;;;;;;11.57;5.00;;;16.60;70.80;;;;;;4988978;28;20037;-78
2021/05/27 11:00:31;;;;;;;8.02;3.53;;;16.80;69.90;;;;;;5001551;28;20022;-79
2021/05/27 11:03:35;;;;;;;8.98;3.70;;;16.80;69.30;;;;;;5000932;28;20125;-80
2021/05/27 11:06:18;;;;;;;8.75;4.25;;;16.80;69.60;;;;;;5010141;28;20077;-79
2021/05/27 11:08:51;;;;;;;12.13;4.47;;;16.60;69.00;;;;;;5012798;28;20044;-81
2021/05/27 11:11:41;;;;;;;9.73;4.00;;;16.30;69.10;;;;;;5012685;28;20030;-80
2021/05/27 11:14:34;;;;;;;9.70;4.32;;;16.10;69.60;;;;;;5014402;28;20026;-78
2021/05/27 11:17:06;;;;;;;10.80;5.18;;;15.80;70.00;;;;;;5012344;28;20115;-80
2021/05/27 11:20:21;;;;;;;10.50;5.43;;;15.60;70.30;;;;;;5012187;28;20032;-78
2021/05/27 11:23:19;;;;;;;14.25;6.45;;;15.30;70.90;;;;;;5010806;28;20054;-79
2021/05/27 11:25:37;;;;;;;12.20;5.85;;;15.20;71.30;;;;;;5010679;28;20033;-78
2021/05/27 11:28:03;;;;;;;12.60;6.53;;;15.10;71.60;;;;;;5012311;28;20030;-78
2021/05/27 11:30:32;;;;;;;13.15;6.00;;;15.10;71.90;;;;;;5005935;28;20038;-75
2021/05/27 11:33:15;;;;;;;9.70;6.03;;;15.10;72.10;;;;;;4997150;28;20030;-81
2021/05/27 11:35:41;;;;;;;11.15;5.63;;;15.20;71.90;;;;;;5006582;28;20061;-78
2021/05/27 11:38:18;;;;;;;10.32;5.68;;;15.20;71.20;;;;;;5012946;28;20576;-78
2021/05/27 11:40:52;;;;;;;11.93;6.18;;;15.30;71.30;;;;;;5013648;28;20474;-78
2021/05/27 11:43:24;;;;;;;13.43;6.70;;;15.80;70.80;;;;;;5013606;28;20580;-79
2021/05/27 11:45:51;;;;;;;12.15;5.78;;;15.90;69.60;;;;;;5013640;28;20057;-79
2021/05/27 11:48:35;;;;;;;11.10;5.50;;;16.00;69.40;;;;;;5012982;28;20045;-83
2021/05/27 11:51:06;;;;;;;12.95;5.47;;;15.80;69.30;;;;;;5012301;28;20484;-77
2021/05/27 11:54:11;;;;;;;10.68;4.72;;;15.60;69.70;;;;;;5008774;28;20504;-77
2021/05/27 11:56:42;;;;;;;10.30;4.22;;;15.40;69.70;;;;;;5001237;28;20033;-80
2021/05/27 11:59:17;;;;;;;8.20;3.78;;;15.20;70.00;;;;;;5015661;28;20034;-79
2021/05/27 12:01:44;;;;;;;9.80;4.40;;;15.20;70.50;;;;;;5012768;28;20034;-78
2021/05/27 12:04:13;;;;;;;9.95;4.00;;;15.30;70.40;;;;;;5016169;28;20044;-79
2021/05/27 12:06:44;;;;;;;8.77;4.68;;;15.50;69.90;;;;;;5013548;28;20030;-81
2021/05/27 12:09:14;;;;;;;8.27;4.47;;;15.70;70.10;;;;;;4996912;28;20046;-79
2021/05/27 12:11:40;;;;;;;7.72;3.55;;;15.90;70.10;;;;;;5012209;28;20049;-80
2021/05/27 12:14:07;;;;;;;9.07;3.85;;;16.10;69.40;;;;;;5015178;28;20022;-78
2021/05/27 12:16:37;;;;;;;11.90;4.65;;;16.20;68.80;;;;;;5013176;28;20117;-81
2021/05/27 12:19:05;;;;;;;10.88;6.38;;;16.30;68.40;;;;;;4994789;28;20029;-79
2021/05/27 12:21:31;;;;;;;11.23;6.35;;;16.30;67.40;;;;;;5013473;28;20030;-77
2021/05/27 12:23:57;;;;;;;10.90;6.28;;;16.20;67.40;;;;;;5005279;28;20061;-81
2021/05/27 12:26:23;;;;;;;10.18;6.65;;;16.10;67.70;;;;;;5014250;28;20116;-79
2021/05/27 12:28:50;;;;;;;9.77;6.03;;;16.10;68.00;;;;;;5017632;28;20045;-78
2021/05/27 12:31:16;;;;;;;10.95;6.78;;;16.00;68.30;;;;;;5025650;28;20055;-78
2021/05/27 12:33:42;;;;;;;11.38;6.82;;;15.90;68.40;;;;;;5036976;28;20033;-79
2021/05/27 12:36:09;;;;;;;15.95;7.32;;;16.00;68.10;;;;;;5024801;28;20033;-84
2021/05/27 12:38:49;;;;;;;12.85;7.43;;;16.20;68.50;;;;;;5025148;28;20041;-77
2021/05/27 12:41:17;;;;;;;13.77;8.40;;;16.50;68.00;;;;;;5026598;28;20089;-77
2021/05/27 12:43:51;;;;;;;13.00;7.70;;;16.50;67.20;;;;;;4991711;28;20045;-78
2021/05/27 12:46:29;;;;;;;16.20;8.73;;;16.40;67.40;;;;;;5024310;28;20036;-78
2021/05/27 12:48:57;;;;;;;13.48;9.73;;;16.30;66.60;;;;;;5023795;28;20093;-81
2021/05/27 12:51:25;;;;;;;16.27;10.35;;;16.20;66.90;;;;;;5014686;28;20056;-80